createdAt,value
2024-02-02T00:00:06.299Z,19.63
2024-02-02T00:02:38.287Z,20.27
2024-02-02T00:05:06.317Z,13.77
2024-02-02T00:07:33.572Z,13.85
2024-02-02T00:10:00.728Z,20.05
2024-02-02T00:12:28.344Z,17.90
2024-02-02T00:14:55.408Z,18.83
2024-02-02T00:17:22.461Z,19.33
2024-02-02T00:19:49.354Z,12.32
2024-02-02T00:22:16.155Z,11.80
2024-02-02T00:24:42.855Z,21.00
2024-02-02T00:27:09.528Z,18.83
2024-02-02T00:29:36.403Z,16.02
2024-02-02T00:32:03.458Z,18.58
2024-02-02T00:34:30.304Z,16.08
2024-02-02T00:36:57.043Z,14.85
2024-02-02T00:39:24.038Z,14.82
2024-02-02T00:41:50.845Z,19.17
2024-02-02T00:44:17.588Z,12.23
2024-02-02T00:46:44.273Z,13.93
2024-02-02T00:49:11.052Z,17.33
2024-02-02T00:51:38.361Z,12.50
2024-02-02T00:54:05.441Z,14.82
2024-02-02T00:56:32.261Z,21.27
2024-02-02T00:58:59.007Z,19.23
2024-02-02T01:01:25.852Z,15.27
2024-02-02T01:03:52.587Z,20.48
2024-02-02T01:06:19.590Z,20.00
2024-02-02T01:08:46.395Z,15.27
2024-02-02T01:11:13.272Z,20.20
2024-02-02T01:13:40.055Z,15.13
2024-02-02T01:16:07.193Z,20.23
2024-02-02T01:18:34.090Z,14.45
2024-02-02T01:21:02.065Z,19.25
2024-02-02T01:23:28.772Z,11.98
2024-02-02T01:25:55.518Z,18.88
2024-02-02T01:28:22.205Z,19.20
2024-02-02T01:30:49.093Z,20.70
2024-02-02T01:33:16.005Z,18.70
2024-02-02T01:35:43.027Z,19.13
2024-02-02T01:38:11.268Z,22.90
2024-02-02T01:40:37.982Z,18.05
2024-02-02T01:43:05.167Z,15.68
2024-02-02T01:45:31.891Z,16.50
2024-02-02T01:47:58.793Z,22.25
2024-02-02T01:50:25.555Z,20.33
2024-02-02T01:52:52.662Z,19.15
2024-02-02T01:55:19.448Z,15.15
2024-02-02T01:57:46.321Z,17.50
2024-02-02T02:00:14.802Z,15.98
2024-02-02T02:02:41.523Z,18.60
2024-02-02T02:05:09.146Z,18.02
2024-02-02T02:07:35.965Z,26.67
2024-02-02T02:10:04.613Z,16.67
2024-02-02T02:12:31.451Z,19.83
2024-02-02T02:14:58.314Z,11.63
2024-02-02T02:17:25.023Z,19.42
2024-02-02T02:19:51.906Z,16.33
2024-02-02T02:22:18.794Z,14.57
2024-02-02T02:24:45.510Z,13.05
2024-02-02T02:27:12.463Z,18.50
2024-02-02T02:29:39.178Z,11.95
2024-02-02T02:32:06.433Z,23.10
2024-02-02T02:34:33.288Z,18.67
2024-02-02T02:37:00.237Z,17.88
2024-02-02T02:39:26.983Z,12.40
2024-02-02T02:41:53.803Z,16.45
2024-02-02T02:44:20.590Z,18.55
2024-02-02T02:46:48.535Z,14.95
2024-02-02T02:49:15.837Z,17.65
2024-02-02T02:51:42.667Z,16.25
2024-02-02T02:54:09.402Z,11.52
2024-02-02T02:56:36.464Z,13.43
2024-02-02T02:59:03.173Z,16.05
2024-02-02T03:01:29.999Z,14.98
2024-02-02T03:03:56.752Z,11.38
2024-02-02T03:06:23.585Z,16.92
2024-02-02T03:08:50.369Z,14.50
2024-02-02T03:11:17.234Z,20.10
2024-02-02T03:13:44.034Z,10.80
2024-02-02T03:16:10.813Z,13.50
2024-02-02T03:18:37.627Z,18.95
2024-02-02T03:21:04.964Z,22.15
2024-02-02T03:23:31.708Z,16.58
2024-02-02T03:25:58.391Z,13.30
2024-02-02T03:28:25.077Z,11.82
2024-02-02T03:30:52.108Z,13.00
2024-02-02T03:33:18.989Z,20.30
2024-02-02T03:35:45.810Z,15.13
2024-02-02T03:38:12.583Z,18.27
2024-02-02T03:40:39.254Z,18.55
2024-02-02T03:43:06.024Z,17.48
2024-02-02T03:45:33.383Z,15.98
2024-02-02T03:48:01.538Z,15.57
2024-02-02T03:50:28.479Z,13.60
2024-02-02T03:52:56.641Z,10.70
2024-02-02T03:55:23.320Z,20.45
2024-02-02T03:57:50.058Z,18.38
2024-02-02T04:00:17.414Z,11.95
2024-02-02T04:02:48.177Z,11.75
2024-02-02T04:05:17.989Z,10.13
2024-02-02T04:07:44.731Z,10.82
2024-02-02T04:10:11.637Z,15.77
2024-02-02T04:12:41.625Z,16.90
2024-02-02T04:15:09.024Z,12.55
2024-02-02T04:17:35.799Z,10.88
2024-02-02T04:20:02.666Z,15.68
2024-02-02T04:22:29.666Z,14.90
2024-02-02T04:24:56.420Z,13.52
2024-02-02T04:27:23.153Z,7.57
2024-02-02T04:29:49.988Z,11.50
2024-02-02T04:32:16.887Z,9.90
2024-02-02T04:34:43.730Z,9.43
2024-02-02T04:37:10.514Z,15.60
2024-02-02T04:39:37.313Z,20.05
2024-02-02T04:42:06.063Z,15.50
2024-02-02T04:44:32.784Z,13.48
2024-02-02T04:46:59.565Z,20.17
2024-02-02T04:49:26.362Z,18.83
2024-02-02T04:51:53.160Z,15.35
2024-02-02T04:54:19.884Z,13.48
2024-02-02T04:56:46.584Z,10.57
2024-02-02T04:59:13.311Z,15.95
2024-02-02T05:01:40.734Z,13.10
2024-02-02T05:04:07.483Z,17.80
2024-02-02T05:06:34.458Z,9.50
2024-02-02T05:09:01.300Z,12.70
2024-02-02T05:11:27.991Z,12.15
2024-02-02T05:13:55.799Z,8.82
2024-02-02T05:16:22.629Z,9.77
2024-02-02T05:18:51.626Z,12.48
2024-02-02T05:21:19.172Z,13.15
2024-02-02T05:23:49.540Z,15.35
2024-02-02T05:26:18.236Z,11.65
2024-02-02T05:28:45.001Z,11.93
2024-02-02T05:31:11.684Z,12.05
2024-02-02T05:33:38.517Z,12.10
2024-02-02T05:36:05.762Z,12.38
2024-02-02T05:38:32.564Z,9.60
2024-02-02T05:41:00.413Z,15.02
2024-02-02T05:43:27.082Z,16.25
2024-02-02T05:45:54.083Z,9.50
2024-02-02T05:48:21.176Z,6.25
2024-02-02T05:50:48.364Z,7.97
2024-02-02T05:53:16.768Z,12.40
2024-02-02T05:55:47.632Z,13.27
2024-02-02T05:58:14.622Z,17.75
2024-02-02T06:00:41.637Z,10.68
2024-02-02T06:03:08.598Z,15.30
2024-02-02T06:05:35.390Z,14.60
2024-02-02T06:08:02.741Z,13.50
2024-02-02T06:10:29.607Z,12.10
2024-02-02T06:12:56.303Z,12.35
2024-02-02T06:15:22.977Z,11.90
2024-02-02T06:17:52.019Z,14.85
2024-02-02T06:20:20.259Z,11.32
2024-02-02T06:22:46.964Z,10.52
2024-02-02T06:25:13.704Z,12.60
2024-02-02T06:27:40.550Z,15.55
2024-02-02T06:30:09.025Z,13.68
2024-02-02T06:32:40.641Z,13.07
2024-02-02T06:35:07.919Z,11.07
2024-02-02T06:37:34.661Z,18.40
2024-02-02T06:40:04.917Z,13.80
2024-02-02T06:42:32.425Z,10.90
2024-02-02T06:44:59.265Z,11.60
2024-02-02T06:47:26.216Z,12.30
2024-02-02T06:49:53.116Z,15.13
2024-02-02T06:52:20.823Z,17.02
2024-02-02T06:54:47.527Z,18.88
2024-02-02T06:57:14.324Z,16.67
2024-02-02T06:59:44.733Z,16.55
2024-02-02T07:02:22.762Z,19.88
2024-02-02T07:04:49.737Z,17.85
2024-02-02T07:07:16.792Z,10.43
2024-02-02T07:09:53.041Z,19.38
2024-02-02T07:13:00.563Z,16.80
2024-02-02T07:15:32.541Z,11.13
2024-02-02T07:17:59.918Z,22.60
2024-02-02T07:20:26.865Z,18.08
2024-02-02T07:22:57.689Z,13.57
2024-02-02T07:25:25.855Z,11.85
2024-02-02T07:27:56.226Z,16.75
2024-02-02T07:30:32.017Z,11.30
2024-02-02T07:33:00.256Z,14.13
2024-02-02T07:35:36.834Z,16.10
2024-02-02T07:38:07.952Z,12.07
2024-02-02T07:41:04.604Z,17.67
2024-02-02T07:43:34.037Z,15.43
2024-02-02T07:46:09.197Z,20.27
2024-02-02T07:48:39.152Z,11.35
2024-02-02T07:51:06.881Z,21.77
2024-02-02T07:53:34.315Z,13.77
2024-02-02T07:56:01.496Z,15.30
2024-02-02T07:58:28.633Z,13.32
2024-02-02T08:00:55.499Z,19.10
2024-02-02T08:03:22.496Z,11.77
2024-02-02T08:05:49.392Z,15.02
2024-02-02T08:08:16.585Z,19.23
2024-02-02T08:10:44.162Z,13.88
2024-02-02T08:13:15.732Z,15.98
2024-02-02T08:15:42.884Z,12.68
2024-02-02T08:18:10.445Z,12.68
2024-02-02T08:20:37.926Z,13.98
2024-02-02T08:23:05.438Z,17.00
2024-02-02T08:25:32.432Z,13.40
2024-02-02T08:27:59.453Z,13.77
2024-02-02T08:30:26.248Z,19.42
2024-02-02T08:32:53.593Z,15.40
2024-02-02T08:35:25.495Z,15.15
2024-02-02T08:37:56.427Z,17.48
2024-02-02T08:40:30.280Z,13.23
2024-02-02T08:42:56.962Z,16.63
2024-02-02T08:45:43.727Z,8.88
2024-02-02T08:48:31.929Z,10.52
2024-02-02T08:50:59.940Z,19.73
2024-02-02T08:53:27.663Z,10.25
2024-02-02T08:56:01.921Z,14.25
2024-02-02T08:58:35.618Z,12.55
2024-02-02T09:01:04.559Z,10.55
2024-02-02T09:03:45.205Z,12.77
2024-02-02T09:06:41.934Z,13.13
2024-02-02T09:09:12.950Z,14.45
2024-02-02T09:11:39.804Z,11.95
2024-02-02T09:14:18.619Z,10.73
2024-02-02T09:16:53.719Z,10.82
2024-02-02T09:19:28.994Z,12.07
2024-02-02T09:22:02.758Z,13.38
2024-02-02T09:24:49.399Z,7.30
2024-02-02T09:27:40.101Z,9.23
2024-02-02T09:30:19.318Z,11.85
2024-02-02T09:32:46.203Z,9.63
2024-02-02T09:35:53.911Z,12.57
2024-02-02T09:38:20.961Z,10.98
2024-02-02T09:41:02.460Z,8.02
2024-02-02T09:44:00.986Z,12.80
2024-02-02T09:46:53.071Z,12.15
2024-02-02T09:50:02.666Z,9.50
2024-02-02T09:52:51.620Z,8.98
2024-02-02T09:56:11.334Z,12.20
2024-02-02T09:58:48.416Z,10.80
2024-02-02T10:01:57.912Z,10.23
2024-02-02T10:05:15.426Z,9.48
2024-02-02T10:08:00.219Z,10.52
2024-02-02T10:10:57.245Z,12.75
2024-02-02T10:14:32.109Z,14.15
2024-02-02T10:17:21.493Z,15.65
2024-02-02T10:20:45.281Z,9.23
2024-02-02T10:23:45.503Z,11.95
2024-02-02T10:26:59.411Z,5.80
2024-02-02T10:29:53.917Z,10.43
2024-02-02T10:33:04.528Z,8.70
2024-02-02T10:36:01.232Z,11.27
2024-02-02T10:38:35.078Z,11.50
2024-02-02T10:41:52.341Z,9.20
2024-02-02T10:45:10.981Z,12.38
2024-02-02T10:48:16.734Z,9.88
2024-02-02T10:51:01.258Z,12.57
2024-02-02T10:53:55.859Z,12.45
2024-02-02T10:56:51.592Z,11.63
2024-02-02T10:59:43.372Z,14.10
2024-02-02T11:02:40.852Z,11.65
2024-02-02T11:05:29.862Z,5.85
2024-02-02T11:08:07.366Z,9.57
2024-02-02T11:11:09.575Z,12.77
2024-02-02T11:14:03.150Z,8.45
2024-02-02T11:17:01.737Z,9.80
2024-02-02T11:19:49.632Z,10.57
2024-02-02T11:22:48.050Z,8.48
2024-02-02T11:25:33.316Z,8.90
2024-02-02T11:28:18.353Z,13.60
2024-02-02T11:31:22.074Z,15.07
2024-02-02T11:34:44.496Z,8.52
2024-02-02T11:37:42.438Z,9.32
2024-02-02T11:40:11.497Z,7.43
2024-02-02T11:42:39.949Z,6.32
2024-02-02T11:45:13.551Z,10.25
2024-02-02T11:48:00.711Z,7.53
2024-02-02T11:50:35.911Z,12.02
2024-02-02T11:53:52.006Z,7.47
2024-02-02T11:56:37.100Z,9.40
2024-02-02T11:59:24.635Z,7.38
2024-02-02T12:02:17.765Z,8.30
2024-02-02T12:05:22.419Z,6.32
2024-02-02T12:08:26.318Z,9.27
2024-02-02T12:10:54.283Z,8.68
2024-02-02T12:13:26.378Z,6.05
2024-02-02T12:15:54.003Z,8.57
2024-02-02T12:18:21.480Z,6.57
2024-02-02T12:20:48.375Z,7.60
2024-02-02T12:23:15.136Z,7.68
2024-02-02T12:25:42.161Z,7.30
2024-02-02T12:28:09.493Z,10.52
2024-02-02T12:30:36.248Z,10.05
2024-02-02T12:33:06.384Z,9.25
2024-02-02T12:35:33.276Z,8.35
2024-02-02T12:37:59.977Z,7.43
2024-02-02T12:40:26.848Z,11.88
2024-02-02T12:42:57.292Z,8.95
2024-02-02T12:45:23.979Z,8.60
2024-02-02T12:47:51.195Z,9.68
2024-02-02T12:50:22.074Z,8.20
2024-02-02T12:52:51.837Z,7.85
2024-02-02T12:55:19.795Z,10.27
2024-02-02T12:57:47.052Z,7.40
2024-02-02T13:00:17.575Z,5.80
2024-02-02T13:02:46.516Z,8.77
2024-02-02T13:05:20.507Z,6.32
2024-02-02T13:07:49.947Z,5.70
2024-02-02T13:10:38.185Z,5.32
2024-02-02T13:13:20.591Z,7.57
2024-02-02T13:15:47.597Z,11.27
2024-02-02T13:18:20.162Z,9.40
2024-02-02T13:20:50.102Z,7.45
2024-02-02T13:23:29.636Z,7.20
2024-02-02T13:26:05.118Z,8.13
2024-02-02T13:28:41.950Z,10.13
2024-02-02T13:31:16.753Z,10.57
2024-02-02T13:33:56.164Z,12.02
2024-02-02T13:36:23.845Z,6.93
2024-02-02T13:38:56.358Z,6.05
2024-02-02T13:41:23.936Z,5.32
2024-02-02T13:44:07.611Z,8.55
2024-02-02T13:46:45.209Z,7.85
2024-02-02T13:49:25.871Z,9.88
2024-02-02T13:51:53.915Z,8.57
2024-02-02T13:54:22.899Z,6.68
2024-02-02T13:56:52.345Z,8.88
2024-02-02T13:59:20.079Z,12.07
2024-02-02T14:01:47.179Z,6.65
2024-02-02T14:04:25.034Z,8.52
2024-02-02T14:06:52.360Z,5.03
2024-02-02T14:09:23.384Z,6.45
2024-02-02T14:11:51.001Z,6.15
2024-02-02T14:14:25.001Z,8.00
2024-02-02T14:16:51.866Z,9.93
2024-02-02T14:19:20.195Z,10.15
2024-02-02T14:21:46.942Z,9.32
2024-02-02T14:24:17.199Z,8.00
2024-02-02T14:26:51.304Z,7.00
2024-02-02T14:29:19.518Z,7.45
2024-02-02T14:31:47.131Z,6.22
2024-02-02T14:34:14.040Z,9.20
2024-02-02T14:36:41.965Z,8.68
2024-02-02T14:39:14.906Z,12.95
2024-02-02T14:41:41.691Z,7.75
2024-02-02T14:44:10.116Z,7.60
2024-02-02T14:46:40.782Z,7.47
2024-02-02T14:49:09.797Z,5.47
2024-02-02T14:51:37.473Z,6.97
2024-02-02T14:54:06.544Z,6.05
2024-02-02T14:56:34.447Z,5.13
2024-02-02T14:59:13.601Z,8.05
2024-02-02T15:01:41.112Z,5.63
2024-02-02T15:04:09.230Z,7.55
2024-02-02T15:06:38.251Z,5.55
2024-02-02T15:09:09.971Z,5.00
2024-02-02T15:11:37.302Z,6.28
2024-02-02T15:14:04.059Z,7.25
2024-02-02T15:16:38.461Z,7.20
2024-02-02T15:19:05.970Z,9.73
2024-02-02T15:21:33.626Z,6.15
2024-02-02T15:24:00.721Z,7.40
2024-02-02T15:26:27.674Z,5.75
2024-02-02T15:28:54.423Z,9.10
2024-02-02T15:31:21.376Z,4.75
2024-02-02T15:33:48.228Z,6.90
2024-02-02T15:36:15.314Z,5.53
2024-02-02T15:38:59.812Z,7.15
2024-02-02T15:41:29.534Z,10.02
2024-02-02T15:43:56.529Z,4.50
2024-02-02T15:46:24.781Z,4.57
2024-02-02T15:48:52.076Z,5.90
2024-02-02T15:51:19.888Z,3.83
2024-02-02T15:53:47.122Z,5.07
2024-02-02T15:56:18.070Z,11.20
2024-02-02T15:58:45.035Z,6.22
2024-02-02T16:01:13.259Z,6.63
2024-02-02T16:03:41.398Z,7.88
2024-02-02T16:06:10.500Z,7.32
2024-02-02T16:08:38.323Z,7.10
2024-02-02T16:11:05.663Z,4.63
2024-02-02T16:13:32.746Z,4.97
2024-02-02T16:16:00.510Z,4.88
2024-02-02T16:18:27.561Z,6.20
2024-02-02T16:20:54.630Z,8.27
2024-02-02T16:23:21.771Z,7.28
2024-02-02T16:25:48.572Z,5.78
2024-02-02T16:28:15.406Z,4.65
2024-02-02T16:30:43.247Z,7.57
2024-02-02T16:33:10.391Z,8.68
2024-02-02T16:35:37.264Z,7.18
2024-02-02T16:38:04.163Z,6.95
2024-02-02T16:40:30.857Z,7.30
2024-02-02T16:42:57.563Z,8.95
2024-02-02T16:45:24.352Z,8.60
2024-02-02T16:47:51.103Z,6.47
2024-02-02T16:50:17.949Z,4.72
2024-02-02T16:52:44.679Z,5.05
2024-02-02T16:55:11.406Z,4.47
2024-02-02T16:57:39.542Z,6.65
2024-02-02T17:00:09.595Z,5.55
2024-02-02T17:02:36.877Z,4.47
2024-02-02T17:05:04.303Z,7.18
2024-02-02T17:07:31.543Z,8.52
2024-02-02T17:09:58.458Z,11.27
2024-02-02T17:12:26.426Z,7.65
2024-02-02T17:14:53.198Z,7.63
2024-02-02T17:17:19.988Z,5.18
2024-02-02T17:19:46.759Z,13.18
2024-02-02T17:22:13.525Z,10.35
2024-02-02T17:24:41.427Z,6.82
2024-02-02T17:27:08.260Z,7.78
2024-02-02T17:29:34.960Z,8.55
2024-02-02T17:32:01.627Z,8.68
2024-02-02T17:34:28.384Z,7.88
2024-02-02T17:36:55.199Z,9.52
2024-02-02T17:39:21.959Z,9.13
2024-02-02T17:41:48.672Z,7.78
2024-02-02T17:44:21.929Z,9.75
2024-02-02T17:46:51.281Z,6.05
2024-02-02T17:49:18.459Z,10.82
2024-02-02T17:51:45.461Z,7.30
2024-02-02T17:54:12.346Z,8.63
2024-02-02T17:56:39.149Z,11.60
2024-02-02T17:59:05.919Z,11.68
2024-02-02T18:01:34.809Z,8.13
2024-02-02T18:04:02.048Z,13.18
2024-02-02T18:06:29.063Z,8.05
2024-02-02T18:08:55.863Z,8.18
2024-02-02T18:11:22.520Z,8.73
2024-02-02T18:13:49.170Z,13.18
2024-02-02T18:16:15.914Z,8.88
2024-02-02T18:18:43.073Z,12.77
2024-02-02T18:21:10.737Z,16.48
2024-02-02T18:23:37.464Z,8.85
2024-02-02T18:26:05.073Z,11.15
2024-02-02T18:28:32.358Z,7.72
2024-02-02T18:30:59.624Z,12.60
2024-02-02T18:33:26.459Z,7.10
2024-02-02T18:35:53.279Z,7.57
2024-02-02T18:38:19.974Z,9.00
2024-02-02T18:40:50.490Z,8.60
2024-02-02T18:43:18.099Z,5.45
2024-02-02T18:45:45.029Z,6.95
2024-02-02T18:48:12.055Z,6.13
2024-02-02T18:50:38.842Z,11.07
2024-02-02T18:53:05.655Z,9.48
2024-02-02T18:55:32.404Z,11.60
2024-02-02T18:57:59.061Z,8.77
2024-02-02T19:00:25.856Z,8.95
2024-02-02T19:02:52.717Z,5.35
2024-02-02T19:05:22.293Z,6.63
2024-02-02T19:07:49.037Z,7.38
2024-02-02T19:10:17.810Z,8.70
2024-02-02T19:12:44.661Z,6.03
2024-02-02T19:15:11.451Z,8.38
2024-02-02T19:17:38.209Z,6.30
2024-02-02T19:20:05.877Z,7.82
2024-02-02T19:22:32.675Z,8.30
2024-02-02T19:24:59.684Z,7.60
2024-02-02T19:27:26.621Z,4.97
2024-02-02T19:29:53.467Z,6.88
2024-02-02T19:32:20.735Z,8.82
2024-02-02T19:34:47.686Z,8.80
2024-02-02T19:37:14.580Z,9.40
2024-02-02T19:39:41.493Z,5.68
2024-02-02T19:42:08.447Z,10.35
2024-02-02T19:44:35.175Z,6.07
2024-02-02T19:47:01.901Z,6.93
2024-02-02T19:49:28.749Z,8.93
2024-02-02T19:51:55.548Z,6.90
2024-02-02T19:54:22.616Z,9.35
2024-02-02T19:56:49.352Z,9.38
2024-02-02T19:59:16.180Z,6.95
2024-02-02T20:01:47.739Z,8.13
2024-02-02T20:04:15.654Z,8.57
2024-02-02T20:06:42.854Z,10.35
2024-02-02T20:09:10.340Z,8.70
2024-02-02T20:11:37.862Z,7.70
2024-02-02T20:14:04.539Z,7.60
2024-02-02T20:16:31.370Z,8.48
2024-02-02T20:18:58.249Z,10.93
2024-02-02T20:21:27.296Z,11.02
2024-02-02T20:23:55.549Z,8.95
2024-02-02T20:26:23.667Z,9.45
2024-02-02T20:28:54.325Z,9.40
2024-02-02T20:31:21.657Z,10.20
2024-02-02T20:33:52.346Z,9.98
2024-02-02T20:36:21.107Z,10.07
2024-02-02T20:38:47.924Z,7.05
2024-02-02T20:41:15.044Z,8.50
2024-02-02T20:43:42.110Z,9.40
2024-02-02T20:46:13.279Z,9.23
2024-02-02T20:48:40.790Z,8.02
2024-02-02T20:51:07.672Z,11.45
2024-02-02T20:53:34.359Z,8.15
2024-02-02T20:56:01.297Z,7.55
2024-02-02T20:58:27.990Z,10.15
2024-02-02T21:00:54.893Z,11.35
2024-02-02T21:03:24.340Z,9.20
2024-02-02T21:05:52.180Z,11.23
2024-02-02T21:08:18.945Z,10.88
2024-02-02T21:10:45.694Z,8.32
2024-02-02T21:13:12.571Z,10.13
2024-02-02T21:15:39.370Z,11.32
2024-02-02T21:18:08.884Z,9.27
2024-02-02T21:20:43.537Z,9.13
2024-02-02T21:23:11.088Z,9.07
2024-02-02T21:25:40.851Z,9.52
2024-02-02T21:28:07.615Z,9.00
2024-02-02T21:30:35.259Z,8.77
2024-02-02T21:33:02.015Z,9.75
2024-02-02T21:35:28.762Z,8.30
2024-02-02T21:37:55.469Z,10.25
2024-02-02T21:40:22.240Z,9.35
2024-02-02T21:42:49.168Z,9.52
2024-02-02T21:45:15.950Z,11.10
2024-02-02T21:47:42.852Z,10.10
2024-02-02T21:50:11.221Z,11.25
2024-02-02T21:52:42.000Z,9.13
2024-02-02T21:55:09.007Z,9.27
2024-02-02T21:57:35.819Z,11.43
2024-02-02T22:00:05.703Z,10.52
2024-02-02T22:02:32.474Z,9.88
2024-02-02T22:04:59.324Z,13.82
2024-02-02T22:07:26.141Z,10.02
2024-02-02T22:09:52.996Z,11.75
2024-02-02T22:12:19.774Z,13.93
2024-02-02T22:14:46.574Z,10.25
2024-02-02T22:17:13.369Z,9.77
2024-02-02T22:19:41.115Z,12.75
2024-02-02T22:22:08.168Z,10.93
2024-02-02T22:24:41.887Z,9.52
2024-02-02T22:27:09.898Z,11.00
2024-02-02T22:29:36.699Z,10.65
2024-02-02T22:32:04.354Z,10.38
2024-02-02T22:34:31.137Z,12.27
2024-02-02T22:36:58.017Z,10.90
2024-02-02T22:39:24.721Z,12.30
2024-02-02T22:41:51.540Z,10.20
2024-02-02T22:44:22.133Z,10.60
2024-02-02T22:46:50.810Z,11.23
2024-02-02T22:49:17.560Z,10.90
2024-02-02T22:51:46.760Z,10.52
2024-02-02T22:54:14.506Z,12.65
2024-02-02T22:56:42.349Z,12.55
2024-02-02T22:59:09.235Z,11.15
2024-02-02T23:01:37.405Z,12.40
2024-02-02T23:04:04.829Z,12.30
2024-02-02T23:06:31.875Z,11.20
2024-02-02T23:09:00.302Z,10.35
2024-02-02T23:11:27.043Z,11.35
2024-02-02T23:13:54.147Z,11.30
2024-02-02T23:16:21.665Z,14.82
2024-02-02T23:18:48.705Z,11.35
2024-02-02T23:21:15.938Z,11.43
2024-02-02T23:23:43.315Z,11.05
2024-02-02T23:26:13.290Z,12.65
2024-02-02T23:28:40.511Z,11.70
2024-02-02T23:31:07.281Z,10.70
2024-02-02T23:33:34.197Z,12.23
2024-02-02T23:36:01.397Z,11.75
2024-02-02T23:38:29.167Z,10.88
2024-02-02T23:40:56.661Z,10.85
2024-02-02T23:43:24.066Z,12.18
2024-02-02T23:45:51.442Z,12.70
2024-02-02T23:48:18.562Z,10.52
2024-02-02T23:50:46.528Z,11.70
2024-02-02T23:53:13.370Z,11.70
2024-02-02T23:55:40.113Z,12.93
2024-02-02T23:58:07.093Z,10.15
